Time,TemperatureF,DewpointF,PressureIn,WindDirection,WindDirectionDegrees,WindSpeedMPH,WindSpeedGustMPH,Humidity,HourlyPrecipIn,Conditions,Clouds,dailyrainin,SolarRadiationWatts/m^2,SoftwareType,DateUTC
2013-07-03 00:00:00,68.0,54.0,-100.00,SE,145,4.0,9.0,60,0.00,,,0.00,0.000000,,2013-07-03 06:00:00,
2013-07-03 00:13:00,68.0,54.0,-100.00,SE,145,4.0,9.0,60,0.00,,,0.00,0.000000,,2013-07-03 06:13:00,
2013-07-03 00:24:00,69.0,52.0,-100.00,SE,143,4.0,14.0,55,0.00,,,0.00,0.000000,,2013-07-03 06:24:00,
2013-07-03 00:58:00,69.0,52.0,-100.00,SE,143,4.0,14.0,55,0.00,,,0.00,0.000000,,2013-07-03 06:58:00,
2013-07-03 01:04:00,69.0,52.0,-100.00,SE,143,4.0,14.0,55,0.00,,,0.00,0.000000,,2013-07-03 07:04:00,
2013-07-03 01:14:00,69.0,52.0,-100.00,SE,143,4.0,14.0,55,0.00,,,0.00,0.000000,,2013-07-03 07:14:00,
2013-07-03 02:07:00,67.0,51.0,-100.00,SE,144,3.0,9.0,56,0.00,,,0.00,0.000000,,2013-07-03 08:07:00,
2013-07-03 02:24:00,66.0,50.0,-100.00,South,175,4.0,11.0,56,0.00,,,0.00,0.000000,,2013-07-03 08:24:00,
2013-07-03 03:04:00,66.0,50.0,-100.00,South,175,4.0,11.0,56,0.00,,,0.00,0.000000,,2013-07-03 09:04:00,
2013-07-03 03:16:00,66.0,50.0,-100.00,South,175,4.0,11.0,56,0.00,,,0.00,0.000000,,2013-07-03 09:16:00,
2013-07-03 03:24:00,64.0,50.0,-100.00,SSE,166,2.0,10.0,60,0.00,,,0.00,0.000000,,2013-07-03 09:24:00,
2013-07-03 03:57:00,64.0,50.0,-100.00,SSE,166,2.0,10.0,60,0.00,,,0.00,0.000000,,2013-07-03 09:57:00,
2013-07-03 04:04:00,64.0,50.0,-100.00,SSE,166,2.0,10.0,60,0.00,,,0.00,0.000000,,2013-07-03 10:04:00,
2013-07-03 04:15:00,64.0,50.0,-100.00,SSE,166,2.0,10.0,60,0.00,,,0.00,0.000000,,2013-07-03 10:15:00,
2013-07-03 04:24:00,60.0,48.0,-100.00,SE,142,2.0,7.0,65,0.00,,,0.00,0.000000,,2013-07-03 10:24:00,
2013-07-03 04:56:00,60.0,48.0,-100.00,SE,142,2.0,7.0,65,0.00,,,0.00,0.000000,,2013-07-03 10:56:00,
2013-07-03 05:06:00,60.0,48.0,-100.00,SE,142,2.0,7.0,65,0.00,,,0.00,0.000000,,2013-07-03 11:06:00,
2013-07-03 05:15:00,60.0,48.0,-100.00,SE,142,2.0,7.0,65,0.00,,,0.00,0.000000,,2013-07-03 11:15:00,
2013-07-03 05:57:00,62.0,50.0,-100.00,South,179,5.0,8.0,65,0.00,,,0.00,2.000000,,2013-07-03 11:57:00,
2013-07-03 06:07:00,62.0,50.0,-100.00,South,179,5.0,8.0,65,0.00,,,0.00,2.000000,,2013-07-03 12:07:00,
2013-07-03 06:15:00,62.0,50.0,-100.00,South,179,5.0,8.0,65,0.00,,,0.00,2.000000,,2013-07-03 12:15:00,
2013-07-03 06:23:00,62.0,50.0,-100.00,South,179,5.0,8.0,65,0.00,,,0.00,2.000000,,2013-07-03 12:23:00,
2013-07-03 06:24:00,65.0,50.0,-100.00,South,175,2.0,7.0,58,0.00,,,0.00,70.000000,,2013-07-03 12:24:00,
2013-07-03 07:15:00,65.0,50.0,-100.00,South,175,2.0,7.0,58,0.00,,,0.00,70.000000,,2013-07-03 13:15:00,
2013-07-03 07:24:00,71.0,51.0,-100.00,South,173,5.0,10.0,50,0.00,,,0.00,240.000000,,2013-07-03 13:24:00,
2013-07-03 08:06:00,71.0,51.0,-100.00,South,173,5.0,10.0,50,0.00,,,0.00,240.000000,,2013-07-03 14:06:00,
2013-07-03 08:14:00,71.0,51.0,-100.00,South,173,5.0,10.0,50,0.00,,,0.00,240.000000,,2013-07-03 14:14:00,
2013-07-03 08:24:00,77.0,54.0,-100.00,SSE,156,5.0,10.0,45,0.00,,,0.00,430.000000,,2013-07-03 14:24:00,
2013-07-03 09:14:00,77.0,54.0,-100.00,SSE,156,5.0,10.0,45,0.00,,,0.00,430.000000,,2013-07-03 15:14:00,
2013-07-03 10:24:00,86.0,53.0,-100.00,South,182,7.0,15.0,32,0.00,,,0.00,828.000000,,2013-07-03 16:24:00,
2013-07-03 10:59:00,86.0,53.0,-100.00,South,182,7.0,15.0,32,0.00,,,0.00,828.000000,,2013-07-03 16:59:00,
2013-07-03 11:14:00,86.0,53.0,-100.00,South,182,7.0,15.0,32,0.00,,,0.00,828.000000,,2013-07-03 17:14:00,
2013-07-03 11:24:00,89.0,52.0,-100.00,South,184,7.0,14.0,28,0.00,,,0.00,976.000000,,2013-07-03 17:24:00,
2013-07-03 11:56:00,89.0,52.0,-100.00,South,184,7.0,14.0,28,0.00,,,0.00,976.000000,,2013-07-03 17:56:00,
2013-07-03 12:06:00,89.0,52.0,-100.00,South,184,7.0,14.0,28,0.00,,,0.00,976.000000,,2013-07-03 18:06:00,
2013-07-03 12:15:00,89.0,52.0,-100.00,South,184,7.0,14.0,28,0.00,,,0.00,976.000000,,2013-07-03 18:15:00,
2013-07-03 12:24:00,91.0,54.0,-100.00,South,187,6.0,14.0,29,0.00,,,0.00,1061.000000,,2013-07-03 18:24:00,
2013-07-03 12:58:00,91.0,54.0,-100.00,South,187,6.0,14.0,29,0.00,,,0.00,1061.000000,,2013-07-03 18:58:00,
2013-07-03 13:04:00,91.0,54.0,-100.00,South,187,6.0,14.0,29,0.00,,,0.00,1061.000000,,2013-07-03 19:04:00,
2013-07-03 13:15:00,91.0,54.0,-100.00,South,187,6.0,14.0,29,0.00,,,0.00,1061.000000,,2013-07-03 19:15:00,
2013-07-03 13:57:00,92.0,55.0,-100.00,NE,54,3.0,14.0,29,0.00,,,0.00,1098.000000,,2013-07-03 19:57:00,
2013-07-03 14:03:00,92.0,55.0,-100.00,NE,54,3.0,14.0,29,0.00,,,0.00,1098.000000,,2013-07-03 20:03:00,
2013-07-03 14:13:00,92.0,55.0,-100.00,NE,54,3.0,14.0,29,0.00,,,0.00,1098.000000,,2013-07-03 20:13:00,
2013-07-03 15:05:00,92.0,53.0,-100.00,SSE,164,6.0,13.0,27,0.00,,,0.00,1074.000000,,2013-07-03 21:05:00,
2013-07-03 15:12:00,92.0,53.0,-100.00,SSE,164,6.0,13.0,27,0.00,,,0.00,1074.000000,,2013-07-03 21:12:00,
2013-07-03 16:24:00,97.0,54.0,-100.00,East,85,2.0,11.0,24,-99.99,,,0.00,833.000000,,2013-07-03 22:24:00,
2013-07-03 16:57:00,97.0,54.0,-100.00,East,85,2.0,11.0,24,-99.99,,,0.00,833.000000,,2013-07-03 22:57:00,
2013-07-03 17:03:00,97.0,54.0,-100.00,East,85,2.0,11.0,24,-99.99,,,0.00,833.000000,,2013-07-03 23:03:00,
2013-07-03 17:13:00,97.0,54.0,-100.00,East,85,2.0,11.0,24,-99.99,,,0.00,833.000000,,2013-07-03 23:13:00,
2013-07-03 17:56:00,95.0,52.0,-100.00,South,191,5.0,10.0,24,0.00,,,0.00,691.000000,,2013-07-03 23:56:00,
2013-07-03 18:02:00,95.0,52.0,-100.00,South,191,5.0,10.0,24,0.00,,,0.00,691.000000,,2013-07-04 00:02:00,
2013-07-03 18:14:00,95.0,52.0,-100.00,South,191,5.0,10.0,24,0.00,,,0.00,691.000000,,2013-07-04 00:14:00,
2013-07-03 18:23:00,95.0,52.0,-100.00,South,191,5.0,10.0,24,0.00,,,0.00,691.000000,,2013-07-04 00:23:00,
2013-07-03 18:57:00,94.0,53.0,-100.00,South,189,4.0,9.0,25,0.00,,,0.00,503.000000,,2013-07-04 00:57:00,
2013-07-03 19:03:00,94.0,53.0,-100.00,South,189,4.0,9.0,25,0.00,,,0.00,503.000000,,2013-07-04 01:03:00,
2013-07-03 19:15:00,94.0,53.0,-100.00,South,189,4.0,9.0,25,0.00,,,0.00,503.000000,,2013-07-04 01:15:00,
2013-07-03 19:23:00,94.0,53.0,-100.00,South,189,4.0,9.0,25,0.00,,,0.00,503.000000,,2013-07-04 01:23:00,
2013-07-03 20:05:00,91.0,55.0,-100.00,South,172,4.0,8.0,30,0.00,,,0.00,74.000000,,2013-07-04 02:05:00,
2013-07-03 20:13:00,91.0,55.0,-100.00,South,172,4.0,8.0,30,0.00,,,0.00,74.000000,,2013-07-04 02:13:00,
2013-07-03 20:23:00,91.0,55.0,-100.00,South,172,4.0,8.0,30,0.00,,,0.00,74.000000,,2013-07-04 02:23:00,
2013-07-03 20:24:00,82.0,60.0,-100.00,SSW,206,1.0,7.0,47,0.00,,,0.00,68.000000,,2013-07-04 02:24:00,
2013-07-03 20:57:00,82.0,60.0,-100.00,SSW,206,1.0,7.0,47,0.00,,,0.00,68.000000,,2013-07-04 02:57:00,
2013-07-03 21:04:00,82.0,60.0,-100.00,SSW,206,1.0,7.0,47,0.00,,,0.00,68.000000,,2013-07-04 03:04:00,
2013-07-03 21:14:00,82.0,60.0,-100.00,SSW,206,1.0,7.0,47,0.00,,,0.00,68.000000,,2013-07-04 03:14:00,
2013-07-03 21:57:00,77.0,59.0,-100.00,SW,214,3.0,5.0,54,0.00,,,0.00,7.000000,,2013-07-04 03:57:00,
2013-07-03 22:02:00,77.0,59.0,-100.00,SW,214,3.0,5.0,54,0.00,,,0.00,7.000000,,2013-07-04 04:02:00,
2013-07-03 22:11:00,77.0,59.0,-100.00,SW,214,3.0,5.0,54,0.00,,,0.00,7.000000,,2013-07-04 04:11:00,
2013-07-03 22:22:00,77.0,59.0,-100.00,SW,214,3.0,5.0,54,0.00,,,0.00,7.000000,,2013-07-04 04:22:00,
2013-07-03 22:52:00,76.0,55.0,-100.00,West,278,5.0,12.0,49,0.00,,,0.00,0.000000,,2013-07-04 04:52:00,
2013-07-03 23:01:00,76.0,55.0,-100.00,West,278,5.0,12.0,49,0.00,,,0.00,0.000000,,2013-07-04 05:01:00,
2013-07-03 23:12:00,76.0,55.0,-100.00,West,278,5.0,12.0,49,0.00,,,0.00,0.000000,,2013-07-04 05:12:00,
2013-07-03 23:22:00,76.0,55.0,-100.00,West,278,5.0,12.0,49,0.00,,,0.00,0.000000,,2013-07-04 05:22:00,
2013-07-03 23:52:00,77.0,67.0,-100.00,NW,319,3.0,9.0,72,0.00,,,0.00,0.000000,,2013-07-04 05:52:00,